Time;durP1;ratioP1;P1;durP2;ratioP2;P2;SDS_P1;SDS_P2;PMS_P1;PMS_P2;Temp;Humidity;BMP_temperature;BMP_pressure;BME280_temperature;BME280_humidity;BME280_pressure;Samples;Min_cycle;Max_cycle;Signal;HPM_P1;HPM_P2
2021/05/13 00:00:25;;;;;;;;;;;19.70;66.80;;;;;;5101846;28;19908;-36
2021/05/13 00:02:51;;;;;;;;;;;19.70;66.80;;;;;;5100493;28;19904;-37
2021/05/13 00:05:17;;;;;;;;;;;19.70;66.80;;;;;;5101952;28;19914;-36
2021/05/13 00:07:43;;;;;;;;;;;19.70;66.70;;;;;;5102138;28;20535;-36
2021/05/13 00:10:10;;;;;;;;;;;19.70;66.70;;;;;;5100680;28;19908;-37
2021/05/13 00:15:28;;;;;;;;;;;19.70;66.80;;;;;;5102318;28;19919;-37
2021/05/13 00:17:55;;;;;;;;;;;19.80;66.80;;;;;;5096753;28;19943;-37
2021/05/13 00:20:22;;;;;;;;;;;19.80;66.70;;;;;;5102009;28;19939;-37
2021/05/13 00:22:48;;;;;;;;;;;19.90;66.60;;;;;;5105306;28;19912;-37
2021/05/13 00:25:15;;;;;;;;;;;19.90;66.50;;;;;;5105829;28;19911;-38
2021/05/13 00:27:40;;;;;;;;;;;19.90;66.50;;;;;;5105832;28;19922;-37
2021/05/13 00:30:07;;;;;;;;;;;20.00;66.40;;;;;;5105468;28;19958;-37
2021/05/13 00:32:34;;;;;;;;;;;20.00;66.50;;;;;;5105197;28;19919;-37
2021/05/13 00:35:00;;;;;;;;;;;20.00;67.10;;;;;;5104599;28;19919;-37
2021/05/13 00:37:26;;;;;;;;;;;20.00;66.30;;;;;;5105180;28;19908;-37
2021/05/13 00:39:51;;;;;;;;;;;20.00;66.00;;;;;;5105037;28;19926;-37
2021/05/13 00:42:17;;;;;;;;;;;20.00;65.70;;;;;;5105581;28;19908;-36
2021/05/13 00:44:45;;;;;;;;;;;20.00;65.60;;;;;;5103669;28;19904;-37
2021/05/13 00:47:12;;;;;;;;;;;20.00;65.50;;;;;;5105049;28;19916;-37
2021/05/13 00:49:39;;;;;;;;;;;20.00;65.30;;;;;;5104754;28;19959;-36
2021/05/13 00:52:06;;;;;;;;;;;20.10;65.30;;;;;;5105353;28;19914;-37
2021/05/13 00:54:32;;;;;;;;;;;20.10;65.20;;;;;;5104501;28;19907;-37
2021/05/13 00:56:58;;;;;;;;;;;20.00;65.00;;;;;;5105018;28;19965;-38
2021/05/13 00:59:26;;;;;;;;;;;20.00;64.90;;;;;;5105149;28;19930;-38
2021/05/13 01:01:52;;;;;;;;;;;20.10;64.80;;;;;;5105089;28;19972;-38
2021/05/13 01:04:19;;;;;;;;;;;20.10;64.70;;;;;;5104236;28;19908;-37
2021/05/13 01:06:46;;;;;;;;;;;20.10;64.60;;;;;;5104621;28;19916;-37
2021/05/13 01:09:12;;;;;;;;;;;20.10;64.50;;;;;;5104709;28;19999;-38
2021/05/13 01:11:41;;;;;;;;;;;20.10;64.40;;;;;;5104178;28;19904;-38
2021/05/13 01:16:57;;;;;;;;;;;20.10;64.30;;;;;;5104715;28;19987;-37
2021/05/13 01:19:23;;;;;;;;;;;20.10;64.20;;;;;;5104125;28;19915;-37
2021/05/13 01:21:49;;;;;;;;;;;20.10;64.10;;;;;;5104266;28;19904;-38
2021/05/13 01:24:15;;;;;;;;;;;20.20;64.00;;;;;;5103641;28;19915;-38
2021/05/13 01:26:41;;;;;;;;;;;20.20;63.90;;;;;;5103082;28;19938;-37
2021/05/13 01:29:07;;;;;;;;;;;20.30;64.50;;;;;;5104294;28;19903;-37
2021/05/13 01:31:33;;;;;;;;;;;20.30;63.80;;;;;;5103323;28;20373;-38
2021/05/13 01:33:59;;;;;;;;;;;20.30;63.50;;;;;;5103036;28;20060;-37
2021/05/13 01:36:25;;;;;;;;;;;20.30;63.30;;;;;;5104085;28;19904;-37
2021/05/13 01:38:51;;;;;;;;;;;20.30;63.20;;;;;;5103139;28;19912;-38
2021/05/13 01:41:17;;;;;;;;;;;20.30;63.20;;;;;;5103253;28;19912;-37
2021/05/13 01:43:43;;;;;;;;;;;20.40;63.20;;;;;;5102152;28;19908;-38
2021/05/13 01:46:09;;;;;;;;;;;20.40;63.20;;;;;;5103967;28;19923;-37
2021/05/13 01:48:35;;;;;;;;;;;20.40;63.10;;;;;;5104142;28;20284;-37
2021/05/13 01:51:01;;;;;;;;;;;20.50;63.20;;;;;;5104099;28;19923;-38
2021/05/13 01:53:27;;;;;;;;;;;20.50;63.10;;;;;;5102967;28;19916;-38
2021/05/13 01:55:53;;;;;;;;;;;20.50;63.10;;;;;;5103020;28;19915;-38
2021/05/13 01:58:19;;;;;;;;;;;20.50;63.10;;;;;;5103039;28;19908;-37
2021/05/13 02:00:45;;;;;;;;;;;20.60;63.10;;;;;;5103957;28;20300;-38
2021/05/13 02:03:12;;;;;;;;;;;20.60;63.00;;;;;;5103374;28;19918;-38
2021/05/13 02:05:38;;;;;;;;;;;20.60;63.00;;;;;;5102957;28;19951;-37
2021/05/13 02:08:04;;;;;;;;;;;20.60;63.00;;;;;;5102695;28;19912;-37
2021/05/13 02:10:30;;;;;;;;;;;20.60;63.00;;;;;;5103096;28;19916;-37
2021/05/13 02:12:56;;;;;;;;;;;20.60;63.00;;;;;;5103018;28;19912;-37
2021/05/13 02:15:22;;;;;;;;;;;20.70;63.00;;;;;;5101838;28;19914;-38
2021/05/13 02:17:48;;;;;;;;;;;20.70;62.90;;;;;;5102885;28;19998;-37
2021/05/13 02:20:16;;;;;;;;;;;20.80;62.90;;;;;;5102434;28;19919;-39
2021/05/13 02:22:42;;;;;;;;;;;20.80;62.90;;;;;;5099119;28;19912;-40
2021/05/13 02:25:08;;;;;;;;;;;20.80;62.80;;;;;;5108053;28;19970;-37
2021/05/13 02:27:34;;;;;;;;;;;20.80;62.80;;;;;;5102090;28;19927;-37
2021/05/13 02:30:00;;;;;;;;;;;20.90;62.90;;;;;;5085076;28;19912;-37
2021/05/13 02:32:26;;;;;;;;;;;20.90;62.90;;;;;;5103328;28;19989;-39
2021/05/13 02:34:52;;;;;;;;;;;20.90;62.90;;;;;;5102705;28;20371;-37
2021/05/13 02:37:20;;;;;;;;;;;20.90;62.80;;;;;;5103516;28;19908;-37
2021/05/13 02:39:49;;;;;;;;;;;20.90;62.80;;;;;;5103144;28;19915;-37
2021/05/13 02:42:15;;;;;;;;;;;20.90;62.90;;;;;;5102899;28;19988;-44
2021/05/13 02:44:41;;;;;;;;;;;21.00;62.80;;;;;;5102045;28;19904;-37
2021/05/13 02:47:07;;;;;;;;;;;21.00;62.70;;;;;;5102825;28;19912;-37
2021/05/13 02:49:33;;;;;;;;;;;21.00;62.60;;;;;;5102879;28;19904;-37
2021/05/13 02:51:59;;;;;;;;;;;21.00;62.60;;;;;;5102999;28;19908;-37
2021/05/13 02:54:25;;;;;;;;;;;21.00;62.50;;;;;;5102341;28;19908;-39
2021/05/13 02:56:51;;;;;;;;;;;21.00;62.50;;;;;;5102811;28;20306;-37
2021/05/13 02:59:17;;;;;;;;;;;21.00;62.40;;;;;;5102704;28;19915;-37
2021/05/13 03:01:43;;;;;;;;;;;21.10;62.40;;;;;;5102288;28;19904;-37
2021/05/13 03:04:09;;;;;;;;;;;21.10;62.40;;;;;;5104100;28;19952;-37
2021/05/13 03:06:37;;;;;;;;;;;21.10;62.30;;;;;;5101918;28;20284;-37
2021/05/13 03:09:03;;;;;;;;;;;21.10;62.30;;;;;;5102790;28;19908;-38
2021/05/13 03:11:29;;;;;;;;;;;21.10;62.20;;;;;;5084239;28;19912;-39
2021/05/13 03:13:58;;;;;;;;;;;21.10;61.90;;;;;;5097847;28;19931;-37
2021/05/13 03:16:23;;;;;;;;;;;21.20;62.70;;;;;;5101095;28;19935;-37
2021/05/13 03:18:51;;;;;;;;;;;21.20;61.80;;;;;;5102428;28;19908;-37
2021/05/13 03:21:32;;;;;;;;;;;21.20;61.70;;;;;;5102529;28;19908;-37
2021/05/13 03:26:37;;;;;;;;;;;21.20;61.80;;;;;;5102281;28;19920;-36
2021/05/13 03:29:03;;;;;;;;;;;21.20;61.80;;;;;;5106865;28;19912;-37
2021/05/13 03:31:29;;;;;;;;;;;21.30;61.90;;;;;;5105710;28;20287;-36
2021/05/13 03:33:54;;;;;;;;;;;21.30;61.90;;;;;;5101500;28;20347;-36
2021/05/13 03:36:20;;;;;;;;;;;21.30;61.90;;;;;;5101570;28;19919;-36
2021/05/13 03:38:46;;;;;;;;;;;21.30;61.90;;;;;;5100975;28;19931;-37
2021/05/13 03:41:12;;;;;;;;;;;21.30;61.90;;;;;;5102254;28;19908;-36
2021/05/13 03:43:38;;;;;;;;;;;21.30;61.80;;;;;;5101412;28;20062;-37
2021/05/13 03:46:04;;;;;;;;;;;21.30;61.80;;;;;;5100935;28;19925;-37
2021/05/13 03:48:30;;;;;;;;;;;21.30;61.80;;;;;;5102160;28;19916;-37
2021/05/13 03:50:56;;;;;;;;;;;21.30;61.70;;;;;;5101794;28;19912;-37
2021/05/13 03:53:22;;;;;;;;;;;21.30;61.80;;;;;;5102190;28;19908;-36
2021/05/13 03:55:51;;;;;;;;;;;21.40;61.70;;;;;;5102594;28;19911;-37
2021/05/13 03:58:19;;;;;;;;;;;21.40;61.70;;;;;;5105838;28;19934;-37
2021/05/13 04:01:04;;;;;;;;;;;21.40;61.60;;;;;;5105709;28;19912;-37
2021/05/13 04:03:30;;;;;;;;;;;21.40;61.60;;;;;;5104957;28;19912;-37
2021/05/13 04:05:56;;;;;;;;;;;21.40;61.60;;;;;;5105628;28;19944;-37
2021/05/13 04:08:21;;;;;;;;;;;21.40;61.60;;;;;;5113297;28;19918;-37
2021/05/13 04:10:47;;;;;;;;;;;21.40;61.50;;;;;;5106022;28;19912;-37
2021/05/13 04:13:14;;;;;;;;;;;21.40;61.50;;;;;;5104721;28;19912;-37
2021/05/13 04:15:44;;;;;;;;;;;21.40;61.40;;;;;;5104626;28;19927;-37
2021/05/13 04:18:10;;;;;;;;;;;21.40;61.40;;;;;;5105515;28;19919;-38
2021/05/13 04:20:36;;;;;;;;;;;21.40;61.40;;;;;;5108849;28;19912;-37
2021/05/13 04:23:02;;;;;;;;;;;21.50;61.40;;;;;;5109360;28;19970;-37
2021/05/13 04:25:28;;;;;;;;;;;21.50;61.40;;;;;;5104639;28;19971;-37
2021/05/13 04:27:54;;;;;;;;;;;21.40;61.30;;;;;;5108551;28;20288;-37
2021/05/13 04:30:20;;;;;;;;;;;21.40;61.20;;;;;;5108969;28;19916;-37
2021/05/13 04:32:46;;;;;;;;;;;21.50;61.30;;;;;;5106122;28;19912;-37
2021/05/13 04:35:12;;;;;;;;;;;21.50;61.20;;;;;;5104676;28;19912;-37
2021/05/13 04:37:38;;;;;;;;;;;21.50;61.30;;;;;;5109590;28;19915;-38
2021/05/13 04:40:04;;;;;;;;;;;21.50;61.20;;;;;;5105063;28;19987;-37
2021/05/13 04:42:30;;;;;;;;;;;21.50;61.20;;;;;;5105215;28;19919;-37
2021/05/13 04:44:57;;;;;;;;;;;21.50;61.10;;;;;;5105105;28;19908;-37
2021/05/13 04:47:30;;;;;;;;;;;21.50;61.10;;;;;;5104831;28;20601;-38
2021/05/13 04:49:56;;;;;;;;;;;21.50;61.10;;;;;;5105075;28;19961;-37
2021/05/13 04:52:24;;;;;;;;;;;21.50;61.10;;;;;;5105062;28;20959;-37
2021/05/13 04:54:50;;;;;;;;;;;21.50;61.10;;;;;;5104780;28;19912;-38
2021/05/13 04:57:16;;;;;;;;;;;21.50;61.10;;;;;;5104721;28;19943;-37
2021/05/13 04:59:42;;;;;;;;;;;21.50;61.00;;;;;;5104901;28;19908;-37
2021/05/13 05:02:08;;;;;;;;;;;21.50;61.00;;;;;;5104389;28;19911;-37
2021/05/13 05:04:34;;;;;;;;;;;21.50;60.90;;;;;;5105189;28;19908;-37
2021/05/13 05:07:00;;;;;;;;;;;21.50;60.90;;;;;;5101721;28;19924;-37
2021/05/13 05:09:26;;;;;;;;;;;21.50;60.80;;;;;;5104294;28;19935;-37
2021/05/13 05:11:51;;;;;;;;;;;21.50;60.80;;;;;;5104654;28;19908;-39
2021/05/13 05:14:17;;;;;;;;;;;21.50;60.70;;;;;;5104234;28;19926;-37
2021/05/13 05:16:43;;;;;;;;;;;21.50;60.70;;;;;;5104190;28;19908;-37
2021/05/13 05:19:09;;;;;;;;;;;21.50;60.70;;;;;;5104636;28;19908;-37
2021/05/13 05:21:35;;;;;;;;;;;21.50;60.70;;;;;;5103957;28;20003;-37
2021/05/13 05:24:01;;;;;;;;;;;21.50;60.70;;;;;;5104083;28;19984;-40
2021/05/13 05:26:27;;;;;;;;;;;21.50;60.60;;;;;;5103383;28;19920;-37
2021/05/13 05:28:53;;;;;;;;;;;21.60;60.70;;;;;;5101196;28;19911;-40
2021/05/13 05:31:19;;;;;;;;;;;21.60;60.50;;;;;;5117896;27;19908;-37
2021/05/13 05:33:45;;;;;;;;;;;21.60;60.60;;;;;;5103688;28;19935;-37
2021/05/13 05:36:11;;;;;;;;;;;21.60;60.50;;;;;;5103002;28;19965;-37
2021/05/13 05:38:36;;;;;;;;;;;21.60;60.50;;;;;;5104220;28;19908;-37
2021/05/13 05:41:02;;;;;;;;;;;21.60;60.40;;;;;;5103783;28;19912;-37
2021/05/13 05:43:28;;;;;;;;;;;21.60;60.40;;;;;;5104248;28;19904;-37
2021/05/13 05:45:54;;;;;;;;;;;21.60;60.40;;;;;;5103405;28;20011;-39
2021/05/13 05:48:20;;;;;;;;;;;21.60;60.40;;;;;;5103687;28;19912;-37
2021/05/13 05:50:46;;;;;;;;;;;21.60;60.40;;;;;;5103938;28;19904;-37
2021/05/13 05:53:12;;;;;;;;;;;21.60;60.30;;;;;;5103848;28;19908;-38
2021/05/13 05:55:38;;;;;;;;;;;21.60;60.30;;;;;;5103880;28;19912;-37
2021/05/13 05:58:04;;;;;;;;;;;21.60;60.30;;;;;;5103365;28;19912;-37
2021/05/13 06:00:30;;;;;;;;;;;21.60;60.20;;;;;;5103736;28;19920;-37
2021/05/13 06:02:56;;;;;;;;;;;21.60;60.10;;;;;;5103916;28;19908;-36
2021/05/13 06:05:23;;;;;;;;;;;21.60;60.10;;;;;;5103236;28;19923;-37
2021/05/13 06:07:49;;;;;;;;;;;21.60;60.00;;;;;;5103267;28;19912;-36
2021/05/13 06:10:15;;;;;;;;;;;21.60;59.90;;;;;;5103126;28;19914;-37
2021/05/13 06:12:41;;;;;;;;;;;21.70;60.00;;;;;;5084657;28;20040;-37
2021/05/13 06:15:08;;;;;;;;;;;21.70;59.90;;;;;;5103442;28;20049;-37
2021/05/13 06:17:34;;;;;;;;;;;21.70;59.90;;;;;;5102835;28;19911;-37
2021/05/13 06:20:01;;;;;;;;;;;21.70;59.80;;;;;;5103071;28;19912;-38
2021/05/13 06:22:28;;;;;;;;;;;21.70;59.80;;;;;;5103002;28;19955;-37
2021/05/13 06:24:53;;;;;;;;;;;21.70;59.70;;;;;;5099190;28;19912;-37
2021/05/13 06:27:20;;;;;;;;;;;21.70;59.70;;;;;;5101714;28;19950;-37
2021/05/13 06:29:46;;;;;;;;;;;21.70;59.70;;;;;;5102564;28;19912;-36
2021/05/13 06:32:12;;;;;;;;;;;21.70;59.60;;;;;;5102157;28;19919;-37
2021/05/13 06:34:38;;;;;;;;;;;21.70;59.70;;;;;;5103189;28;19908;-37
2021/05/13 06:37:03;;;;;;;;;;;21.70;59.60;;;;;;5102141;28;19916;-37
2021/05/13 06:39:32;;;;;;;;;;;21.70;59.60;;;;;;5084362;28;19916;-38
2021/05/13 06:42:01;;;;;;;;;;;21.70;59.50;;;;;;5102595;28;19908;-37
2021/05/13 06:44:27;;;;;;;;;;;21.70;59.50;;;;;;5102772;28;20014;-37
2021/05/13 06:46:52;;;;;;;;;;;21.70;59.50;;;;;;5098126;28;19916;-37
2021/05/13 06:49:18;;;;;;;;;;;21.70;59.40;;;;;;5102180;28;19923;-37
2021/05/13 06:51:45;;;;;;;;;;;21.70;59.40;;;;;;5102466;28;19908;-37
2021/05/13 06:54:11;;;;;;;;;;;21.70;59.30;;;;;;5101902;28;20277;-37
2021/05/13 06:56:38;;;;;;;;;;;21.70;59.30;;;;;;5101720;28;19931;-37
2021/05/13 06:59:03;;;;;;;;;;;21.80;59.30;;;;;;5102353;28;19916;-37
2021/05/13 07:01:29;;;;;;;;;;;21.80;59.30;;;;;;5102317;28;19942;-37
2021/05/13 07:03:55;;;;;;;;;;;21.80;59.20;;;;;;5102709;28;19943;-37
2021/05/13 07:06:21;;;;;;;;;;;21.80;59.20;;;;;;5102083;28;19922;-37
2021/05/13 07:08:47;;;;;;;;;;;21.80;59.20;;;;;;5102653;28;19912;-37
2021/05/13 07:11:13;;;;;;;;;;;21.80;59.20;;;;;;5102373;28;19904;-37
2021/05/13 07:13:39;;;;;;;;;;;21.80;59.20;;;;;;5102714;28;19990;-37
2021/05/13 07:16:05;;;;;;;;;;;21.80;59.10;;;;;;5102063;28;19912;-38
2021/05/13 07:18:31;;;;;;;;;;;21.80;59.10;;;;;;5101484;28;19908;-37
2021/05/13 07:20:57;;;;;;;;;;;21.80;59.10;;;;;;5102050;28;19904;-37
2021/05/13 07:23:23;;;;;;;;;;;21.80;59.10;;;;;;5102905;28;19908;-38
2021/05/13 07:25:49;;;;;;;;;;;21.80;59.00;;;;;;5102192;28;19931;-37
2021/05/13 07:28:14;;;;;;;;;;;21.80;59.00;;;;;;5101769;28;20659;-38
2021/05/13 07:30:42;;;;;;;;;;;21.80;59.00;;;;;;5105165;28;19935;-37
2021/05/13 07:33:08;;;;;;;;;;;21.80;59.00;;;;;;5107031;28;20650;-38
2021/05/13 07:35:34;;;;;;;;;;;21.80;59.00;;;;;;5087991;28;19975;-37
2021/05/13 07:38:00;;;;;;;;;;;21.80;58.90;;;;;;5084991;28;19940;-37
2021/05/13 07:40:26;;;;;;;;;;;21.80;58.90;;;;;;5106072;28;19908;-37
2021/05/13 07:42:52;;;;;;;;;;;21.80;58.90;;;;;;5106593;28;19911;-37
2021/05/13 07:45:18;;;;;;;;;;;21.80;58.90;;;;;;5106573;28;19912;-38
2021/05/13 07:47:44;;;;;;;;;;;21.80;58.80;;;;;;5106067;28;20680;-39
2021/05/13 07:50:15;;;;;;;;;;;21.80;58.80;;;;;;5087971;28;20297;-38
2021/05/13 07:52:41;;;;;;;;;;;21.80;58.80;;;;;;5111069;28;19916;-39
2021/05/13 07:55:07;;;;;;;;;;;21.80;58.80;;;;;;5106685;28;19915;-38
2021/05/13 07:57:33;;;;;;;;;;;21.80;58.70;;;;;;5106429;28;19940;-37
2021/05/13 07:59:59;;;;;;;;;;;21.80;58.70;;;;;;5105058;28;20619;-38
2021/05/13 08:02:25;;;;;;;;;;;21.80;58.70;;;;;;5105446;28;19919;-38
2021/05/13 08:04:50;;;;;;;;;;;21.80;58.70;;;;;;5106201;28;19937;-38
2021/05/13 08:07:23;;;;;;;;;;;21.80;58.70;;;;;;5104534;28;19919;-38
2021/05/13 08:09:49;;;;;;;;;;;21.80;58.70;;;;;;5105057;28;20011;-37
2021/05/13 08:12:15;;;;;;;;;;;21.80;58.70;;;;;;5105406;28;19908;-38
2021/05/13 08:14:41;;;;;;;;;;;21.80;58.70;;;;;;5105204;28;19927;-37
2021/05/13 08:17:07;;;;;;;;;;;21.80;58.60;;;;;;5102069;28;19939;-37
2021/05/13 08:19:33;;;;;;;;;;;21.80;58.60;;;;;;5105508;28;19908;-37
2021/05/13 08:21:59;;;;;;;;;;;21.80;58.50;;;;;;5106136;28;19927;-37
2021/05/13 08:24:25;;;;;;;;;;;21.80;58.50;;;;;;5106331;28;19912;-35
2021/05/13 08:26:51;;;;;;;;;;;21.80;58.60;;;;;;5105619;28;19979;-35
2021/05/13 08:29:17;;;;;;;;;;;21.80;58.50;;;;;;5104580;28;19912;-36
2021/05/13 08:31:56;;;;;;;;;;;21.80;58.50;;;;;;5105691;28;19915;-35
2021/05/13 08:34:22;;;;;;;;;;;21.80;58.50;;;;;;5105368;28;19926;-35
2021/05/13 08:36:49;;;;;;;;;;;21.80;58.50;;;;;;5105017;28;19911;-35
2021/05/13 08:39:16;;;;;;;;;;;21.80;58.50;;;;;;5104720;28;19912;-38
2021/05/13 08:41:42;;;;;;;;;;;21.80;58.50;;;;;;5104778;28;19912;-38
2021/05/13 08:44:09;;;;;;;;;;;21.80;58.50;;;;;;5105959;28;20605;-37
2021/05/13 08:46:38;;;;;;;;;;;21.80;58.40;;;;;;5105381;28;19923;-38
2021/05/13 08:49:04;;;;;;;;;;;21.80;58.40;;;;;;5105239;28;19911;-38
2021/05/13 08:51:30;;;;;;;;;;;21.80;58.40;;;;;;5105460;28;19982;-38
2021/05/13 08:53:57;;;;;;;;;;;21.80;58.40;;;;;;5105550;28;19985;-37
2021/05/13 08:56:23;;;;;;;;;;;21.80;58.40;;;;;;5104820;28;19999;-38
2021/05/13 08:58:49;;;;;;;;;;;21.80;58.30;;;;;;5104865;28;19908;-37
2021/05/13 09:01:16;;;;;;;;;;;21.80;58.40;;;;;;5105431;28;19920;-37
2021/05/13 09:03:42;;;;;;;;;;;21.80;58.30;;;;;;5105446;28;19994;-37
2021/05/13 09:06:08;;;;;;;;;;;21.80;58.30;;;;;;5104069;28;19920;-37
2021/05/13 09:08:34;;;;;;;;;;;21.80;58.30;;;;;;5104543;28;19908;-37
2021/05/13 09:11:12;;;;;;;;;;;21.80;58.30;;;;;;5086228;28;19966;-37
2021/05/13 09:13:38;;;;;;;;;;;21.80;58.30;;;;;;5103561;28;20620;-37
2021/05/13 09:16:23;;;;;;;;;;;21.80;58.30;;;;;;5104736;28;19908;-37
2021/05/13 09:18:49;;;;;;;;;;;21.80;58.30;;;;;;5102616;28;20300;-37
2021/05/13 09:21:14;;;;;;;;;;;21.80;58.30;;;;;;5104693;28;19907;-37
2021/05/13 09:23:40;;;;;;;;;;;21.80;58.20;;;;;;5104980;28;20649;-37
2021/05/13 09:26:13;;;;;;;;;;;21.80;58.20;;;;;;5104743;28;19915;-37
2021/05/13 09:28:39;;;;;;;;;;;21.80;58.20;;;;;;5103076;28;19911;-37
2021/05/13 09:31:05;;;;;;;;;;;21.80;58.20;;;;;;5104224;28;19922;-38
2021/05/13 09:33:33;;;;;;;;;;;21.80;58.20;;;;;;5104522;28;19908;-38
2021/05/13 09:36:16;;;;;;;;;;;21.80;58.70;;;;;;5104618;28;19911;-38
2021/05/13 09:38:42;;;;;;;;;;;21.80;58.10;;;;;;5102758;28;19979;-37
2021/05/13 09:41:08;;;;;;;;;;;21.80;58.10;;;;;;5103969;28;19990;-37
2021/05/13 09:43:34;;;;;;;;;;;21.80;58.10;;;;;;5104340;28;19985;-40
2021/05/13 09:46:01;;;;;;;;;;;21.80;58.10;;;;;;5104138;28;19926;-37
2021/05/13 09:48:33;;;;;;;;;;;21.80;58.10;;;;;;5103371;28;20419;-37
2021/05/13 09:51:15;;;;;;;;;;;21.80;58.10;;;;;;5103234;28;19916;-37
2021/05/13 09:53:41;;;;;;;;;;;21.80;58.10;;;;;;5085327;28;19987;-37
2021/05/13 09:56:23;;;;;;;;;;;21.80;58.10;;;;;;5103904;28;19908;-37
2021/05/13 09:58:48;;;;;;;;;;;21.80;58.10;;;;;;5102632;28;19942;-37
2021/05/13 10:01:14;;;;;;;;;;;21.80;58.10;;;;;;5103813;28;19954;-36
2021/05/13 10:03:41;;;;;;;;;;;21.80;58.10;;;;;;5103497;28;19916;-37
2021/05/13 10:06:07;;;;;;;;;;;21.80;58.10;;;;;;5103228;28;19912;-37
2021/05/13 10:08:33;;;;;;;;;;;21.80;58.10;;;;;;5084929;28;19916;-37
2021/05/13 10:10:58;;;;;;;;;;;21.80;58.00;;;;;;5102795;28;19917;-37
2021/05/13 10:13:30;;;;;;;;;;;21.80;58.00;;;;;;5103661;28;19923;-37
2021/05/13 10:15:56;;;;;;;;;;;21.80;58.00;;;;;;5086139;28;19918;-37
2021/05/13 10:18:57;;;;;;;;;;;21.80;58.00;;;;;;5103581;28;19947;-37
2021/05/13 10:21:27;;;;;;;;;;;21.80;58.00;;;;;;5045802;28;20016;-37
2021/05/13 10:23:53;;;;;;;;;;;21.80;57.90;;;;;;5028422;28;20291;-37
2021/05/13 10:26:28;;;;;;;;;;;21.80;58.00;;;;;;5034010;28;19913;-37
2021/05/13 10:28:54;;;;;;;;;;;21.80;57.90;;;;;;5038573;28;20019;-37
2021/05/13 10:31:21;;;;;;;;;;;21.80;57.90;;;;;;5046392;28;19968;-37
2021/05/13 10:33:49;;;;;;;;;;;21.80;57.90;;;;;;5032559;28;19909;-37
2021/05/13 10:36:18;;;;;;;;;;;21.80;57.80;;;;;;5032543;28;20429;-37
2021/05/13 10:38:45;;;;;;;;;;;21.80;57.90;;;;;;5044322;28;19905;-36
2021/05/13 10:41:34;;;;;;;;;;;21.80;57.80;;;;;;5039005;28;20509;-37
2021/05/13 10:44:12;;;;;;;;;;;21.80;57.80;;;;;;5047495;28;19909;-37
2021/05/13 10:46:39;;;;;;;;;;;21.80;57.80;;;;;;5048331;28;19924;-38
2021/05/13 10:49:17;;;;;;;;;;;21.80;57.80;;;;;;5052424;28;19905;-37
2021/05/13 10:51:43;;;;;;;;;;;21.80;57.80;;;;;;5049483;28;20445;-37
2021/05/13 10:54:09;;;;;;;;;;;21.80;57.80;;;;;;5048971;28;19951;-37
2021/05/13 10:56:35;;;;;;;;;;;21.80;57.80;;;;;;5102325;28;19912;-37
2021/05/13 10:59:10;;;;;;;;;;;21.80;57.80;;;;;;5104211;28;19911;-38
2021/05/13 11:01:41;;;;;;;;;;;21.80;58.40;;;;;;5102786;28;20486;-37
2021/05/13 11:04:22;;;;;;;;;;;21.80;57.80;;;;;;5102930;28;19958;-37
2021/05/13 11:06:48;;;;;;;;;;;21.80;57.80;;;;;;5099004;28;19923;-37
2021/05/13 11:09:33;;;;;;;;;;;21.80;57.80;;;;;;5103362;28;19907;-37
2021/05/13 11:12:17;;;;;;;;;;;21.80;57.80;;;;;;5103196;28;19950;-36
2021/05/13 11:17:56;;;;;;;;;;;21.80;57.70;;;;;;5100768;28;20373;-37
2021/05/13 11:20:22;;;;;;;;;;;21.80;57.70;;;;;;5027415;28;19964;-37
2021/05/13 11:22:51;;;;;;;;;;;21.80;57.70;;;;;;5022039;28;19908;-37
2021/05/13 11:25:17;;;;;;;;;;;21.80;57.70;;;;;;5027839;28;19936;-36
2021/05/13 11:27:43;;;;;;;;;;;21.80;57.70;;;;;;5031525;28;19925;-37
2021/05/13 11:30:09;;;;;;;;;;;21.80;57.70;;;;;;5026230;28;19913;-37
2021/05/13 11:32:35;;;;;;;;;;;21.80;57.70;;;;;;5030996;28;19917;-37
2021/05/13 11:35:01;;;;;;;;;;;21.80;57.60;;;;;;5012263;28;19968;-36
2021/05/13 11:37:36;;;;;;;;;;;21.80;57.60;;;;;;5028930;28;19914;-36
2021/05/13 11:40:22;;;;;;;;;;;21.80;58.10;;;;;;5027211;28;19955;-36
2021/05/13 11:42:48;;;;;;;;;;;21.80;57.60;;;;;;5029126;28;19941;-36
2021/05/13 11:45:15;;;;;;;;;;;21.80;57.60;;;;;;5030709;28;19968;-36
2021/05/13 11:47:41;;;;;;;;;;;21.80;57.60;;;;;;5023112;28;19918;-36
2021/05/13 11:50:07;;;;;;;;;;;21.80;57.70;;;;;;5025792;28;19912;-37
2021/05/13 11:52:34;;;;;;;;;;;21.80;57.60;;;;;;5029319;28;20341;-36
2021/05/13 11:55:00;;;;;;;;;;;21.80;57.60;;;;;;5028603;28;19928;-36
2021/05/13 11:57:26;;;;;;;;;;;21.80;57.60;;;;;;5071299;28;20415;-36
2021/05/13 11:59:52;;;;;;;;;;;21.80;57.60;;;;;;5102188;28;19916;-36
2021/05/13 12:02:17;;;;;;;;;;;21.80;57.60;;;;;;5084426;28;19971;-37
2021/05/13 12:04:43;;;;;;;;;;;21.80;57.60;;;;;;5102680;28;19904;-37
2021/05/13 12:07:09;;;;;;;;;;;21.80;57.50;;;;;;5102290;28;20338;-36
2021/05/13 12:09:35;;;;;;;;;;;21.80;57.60;;;;;;5084117;28;19967;-37
2021/05/13 12:12:01;;;;;;;;;;;21.80;57.50;;;;;;5102483;28;19916;-36
2021/05/13 12:14:28;;;;;;;;;;;21.80;57.60;;;;;;5102081;28;19920;-37
2021/05/13 12:17:01;;;;;;;;;;;21.80;57.50;;;;;;5102499;28;19945;-36
2021/05/13 12:19:27;;;;;;;;;;;21.80;57.50;;;;;;5105649;28;20226;-37
2021/05/13 12:21:54;;;;;;;;;;;21.80;57.50;;;;;;5106190;28;19908;-37
2021/05/13 12:24:25;;;;;;;;;;;21.80;57.50;;;;;;5105787;28;19908;-37
2021/05/13 12:26:51;;;;;;;;;;;21.90;57.50;;;;;;5104844;28;19924;-37
2021/05/13 12:29:17;;;;;;;;;;;21.90;57.60;;;;;;5105885;28;19962;-36
2021/05/13 12:31:46;;;;;;;;;;;21.90;57.50;;;;;;5087527;28;20383;-37
2021/05/13 12:34:21;;;;;;;;;;;21.90;57.50;;;;;;5105959;28;19908;-37
2021/05/13 12:36:50;;;;;;;;;;;21.90;57.50;;;;;;5086666;28;19908;-37
2021/05/13 12:39:27;;;;;;;;;;;21.90;57.50;;;;;;5106068;28;19918;-36
2021/05/13 12:41:53;;;;;;;;;;;21.90;57.50;;;;;;5104174;28;19908;-37
2021/05/13 12:44:19;;;;;;;;;;;21.90;57.50;;;;;;5105525;28;19904;-36
2021/05/13 12:46:45;;;;;;;;;;;22.00;57.50;;;;;;5086423;28;19965;-37
2021/05/13 12:49:21;;;;;;;;;;;22.00;57.50;;;;;;5087126;28;19919;-37
2021/05/13 12:51:59;;;;;;;;;;;22.00;57.70;;;;;;5102460;28;19975;-37
2021/05/13 12:54:25;;;;;;;;;;;22.00;58.00;;;;;;5103477;28;19912;-36
2021/05/13 12:56:51;;;;;;;;;;;22.00;57.50;;;;;;5104507;28;19910;-37
2021/05/13 12:59:17;;;;;;;;;;;22.10;57.50;;;;;;5105183;28;19919;-37
2021/05/13 13:01:54;;;;;;;;;;;22.10;57.40;;;;;;5105401;28;20284;-37
2021/05/13 13:04:20;;;;;;;;;;;22.10;57.40;;;;;;5087136;28;20003;-37
2021/05/13 13:06:47;;;;;;;;;;;22.10;57.40;;;;;;5104484;28;19919;-37
2021/05/13 13:09:28;;;;;;;;;;;22.20;57.40;;;;;;5105356;28;19915;-37
2021/05/13 13:11:59;;;;;;;;;;;22.20;57.50;;;;;;5104661;28;19908;-37
2021/05/13 13:14:44;;;;;;;;;;;22.20;57.40;;;;;;5104870;28;19976;-37
2021/05/13 13:17:39;;;;;;;;;;;22.20;57.30;;;;;;5104755;28;19912;-37
2021/05/13 13:20:11;;;;;;;;;;;22.30;57.40;;;;;;5101032;28;19915;-37
2021/05/13 13:22:37;;;;;;;;;;;22.30;57.30;;;;;;5105000;28;19908;-37
2021/05/13 13:25:05;;;;;;;;;;;22.30;57.30;;;;;;5105090;28;19908;-37
2021/05/13 13:27:36;;;;;;;;;;;22.30;57.30;;;;;;5103710;28;20534;-37
2021/05/13 13:30:03;;;;;;;;;;;22.30;57.30;;;;;;5104671;28;19912;-37
2021/05/13 13:32:29;;;;;;;;;;;22.40;57.30;;;;;;5104492;28;19904;-37
2021/05/13 13:35:01;;;;;;;;;;;22.40;57.20;;;;;;5104575;28;19908;-37
2021/05/13 13:37:26;;;;;;;;;;;22.40;57.30;;;;;;5104293;28;19912;-37
2021/05/13 13:39:52;;;;;;;;;;;22.40;57.20;;;;;;5105125;28;19911;-36
2021/05/13 13:42:19;;;;;;;;;;;22.50;57.30;;;;;;5104656;28;19916;-38
2021/05/13 13:44:45;;;;;;;;;;;22.50;57.30;;;;;;5104529;28;19915;-37
2021/05/13 13:47:11;;;;;;;;;;;22.50;57.10;;;;;;5103516;28;19916;-37
2021/05/13 13:49:36;;;;;;;;;;;22.50;57.10;;;;;;5104647;28;19911;-37
2021/05/13 13:52:02;;;;;;;;;;;22.60;57.10;;;;;;5104311;28;19915;-37
2021/05/13 13:54:28;;;;;;;;;;;22.60;57.10;;;;;;5104308;28;19908;-37
2021/05/13 13:56:54;;;;;;;;;;;22.60;57.10;;;;;;5100529;28;19912;-36
2021/05/13 13:59:20;;;;;;;;;;;22.70;57.10;;;;;;5104211;28;19982;-38
2021/05/13 14:01:46;;;;;;;;;;;22.70;57.20;;;;;;5103944;28;19957;-39
2021/05/13 14:04:11;;;;;;;;;;;22.80;57.80;;;;;;5103945;28;19919;-39
2021/05/13 14:06:37;;;;;;;;;;;22.80;57.80;;;;;;5103877;28;19922;-40
2021/05/13 14:09:03;;;;;;;;;;;22.90;58.10;;;;;;5102819;28;19904;-39
2021/05/13 14:11:31;;;;;;;;;;;22.90;58.20;;;;;;5103548;28;19912;-38
2021/05/13 14:13:58;;;;;;;;;;;23.00;58.10;;;;;;5108302;28;19920;-39
2021/05/13 14:16:24;;;;;;;;;;;23.00;58.40;;;;;;5112578;28;20009;-39
2021/05/13 14:18:50;;;;;;;;;;;23.00;58.40;;;;;;5105867;28;19904;-39
2021/05/13 14:21:15;;;;;;;;;;;23.00;58.40;;;;;;5085770;28;19926;-39
2021/05/13 14:23:42;;;;;;;;;;;23.00;58.30;;;;;;5103759;28;19904;-38
2021/05/13 14:26:07;;;;;;;;;;;23.10;58.40;;;;;;5103769;28;19943;-39
2021/05/13 14:28:33;;;;;;;;;;;23.10;58.40;;;;;;5104354;28;19916;-39